createdAt,value
2018-03-15T00:01:33.349Z,4.80
2018-03-15T00:03:59.333Z,4.80
2018-03-15T00:06:25.317Z,4.80
2018-03-15T00:08:51.273Z,4.70
2018-03-15T00:11:17.244Z,4.70
2018-03-15T00:13:43.241Z,4.60
2018-03-15T00:16:09.210Z,4.60
2018-03-15T00:18:35.175Z,4.70
2018-03-15T00:21:01.140Z,4.80
2018-03-15T00:23:27.109Z,4.80
2018-03-15T00:25:53.082Z,4.70
2018-03-15T00:28:19.054Z,4.80
2018-03-15T00:30:45.800Z,4.70
2018-03-15T00:33:12.512Z,4.50
2018-03-15T00:35:38.485Z,4.50
2018-03-15T00:38:04.524Z,4.60
2018-03-15T00:40:30.513Z,4.60
2018-03-15T00:42:56.475Z,4.60
2018-03-15T00:45:22.428Z,4.60
2018-03-15T00:47:48.387Z,4.50
2018-03-15T00:50:15.081Z,4.40
2018-03-15T00:52:41.045Z,4.40
2018-03-15T00:55:07.002Z,4.30
2018-03-15T00:57:33.721Z,4.40
2018-03-15T00:59:59.829Z,4.40
2018-03-15T01:02:25.812Z,4.40
2018-03-15T01:04:51.772Z,4.30
2018-03-15T01:07:17.725Z,4.40
2018-03-15T01:09:43.700Z,4.40
2018-03-15T01:12:09.660Z,4.30
2018-03-15T01:14:36.356Z,4.20
2018-03-15T01:17:02.345Z,4.20
2018-03-15T01:19:29.061Z,4.30
2018-03-15T01:21:55.033Z,4.30
2018-03-15T01:24:21.009Z,4.20
2018-03-15T01:26:46.973Z,4.20
2018-03-15T01:29:12.938Z,4.20
2018-03-15T01:31:38.910Z,4.10
2018-03-15T01:34:04.876Z,4.10
2018-03-15T01:36:30.846Z,4.10
2018-03-15T01:38:56.841Z,4.10
2018-03-15T01:41:23.544Z,4.00
2018-03-15T01:43:49.565Z,4.00
2018-03-15T01:46:15.521Z,4.00
2018-03-15T01:48:41.482Z,4.00
2018-03-15T01:51:08.196Z,3.90
2018-03-15T01:53:34.149Z,3.90
2018-03-15T01:56:00.121Z,4.00
2018-03-15T01:58:26.821Z,4.00
2018-03-15T02:00:52.861Z,4.00
2018-03-15T02:03:18.893Z,3.90
2018-03-15T02:05:44.885Z,3.90
2018-03-15T02:08:10.854Z,3.90
2018-03-15T02:10:36.830Z,4.00
2018-03-15T02:13:02.785Z,3.90
2018-03-15T02:15:29.490Z,3.90
2018-03-15T02:17:55.462Z,3.80
2018-03-15T02:20:22.176Z,3.80
2018-03-15T02:22:48.147Z,3.80
2018-03-15T02:25:14.856Z,3.80
2018-03-15T02:27:40.820Z,3.70
2018-03-15T02:30:06.784Z,3.70
2018-03-15T02:32:33.484Z,3.70
2018-03-15T02:34:59.466Z,3.70
2018-03-15T02:37:26.203Z,3.60
2018-03-15T02:39:52.191Z,3.60
2018-03-15T02:42:18.160Z,3.60
2018-03-15T02:44:44.132Z,3.40
2018-03-15T02:47:10.084Z,3.50
2018-03-15T02:49:36.044Z,3.60
2018-03-15T02:52:01.998Z,3.60
2018-03-15T02:54:27.976Z,3.60
2018-03-15T02:56:54.663Z,3.40
2018-03-15T02:59:20.631Z,3.40
2018-03-15T03:01:46.576Z,3.50
2018-03-15T03:04:13.707Z,3.50
2018-03-15T03:06:39.655Z,3.50
2018-03-15T03:09:06.353Z,3.50
2018-03-15T03:11:32.324Z,3.50
2018-03-15T03:13:58.280Z,3.40
2018-03-15T03:16:24.252Z,3.50
2018-03-15T03:18:50.227Z,3.50
2018-03-15T03:21:16.209Z,3.50
2018-03-15T03:23:42.160Z,3.50
2018-03-15T03:26:08.516Z,3.40
2018-03-15T03:28:34.468Z,3.40
2018-03-15T03:31:01.159Z,3.40
2018-03-15T03:33:27.123Z,3.40
2018-03-15T03:35:53.101Z,3.30
2018-03-15T03:38:19.081Z,3.50
2018-03-15T03:40:45.066Z,3.40
2018-03-15T03:43:11.795Z,3.50
2018-03-15T03:45:37.769Z,3.50
2018-03-15T03:48:03.748Z,3.30
2018-03-15T03:50:29.707Z,3.40
2018-03-15T03:52:55.677Z,3.50
2018-03-15T03:55:21.649Z,3.40
2018-03-15T03:57:47.624Z,3.40
2018-03-15T04:00:14.312Z,3.30
2018-03-15T04:02:40.281Z,3.30
2018-03-15T04:05:06.256Z,3.40
2018-03-15T04:07:32.211Z,3.30
2018-03-15T04:09:58.171Z,3.40
2018-03-15T04:12:24.129Z,3.40
2018-03-15T04:14:50.105Z,3.50
2018-03-15T04:17:16.063Z,3.30
2018-03-15T04:19:42.045Z,3.30
2018-03-15T04:22:08.737Z,3.30
2018-03-15T04:24:34.711Z,3.30
2018-03-15T04:27:00.684Z,3.20
2018-03-15T04:29:27.387Z,3.20
2018-03-15T04:31:53.344Z,3.20
2018-03-15T04:34:19.311Z,3.30
2018-03-15T04:36:45.277Z,3.20
2018-03-15T04:39:11.238Z,3.20
2018-03-15T04:41:37.210Z,3.20
2018-03-15T04:44:03.959Z,3.40
2018-03-15T04:46:30.705Z,3.30
2018-03-15T04:48:57.404Z,3.20
2018-03-15T04:51:23.375Z,3.20
2018-03-15T04:53:49.337Z,3.20
2018-03-15T04:56:16.065Z,3.30
2018-03-15T04:58:42.024Z,3.20
2018-03-15T05:01:08.732Z,3.40
2018-03-15T05:03:34.696Z,3.40
2018-03-15T05:06:00.700Z,3.30
2018-03-15T05:08:26.660Z,3.30
2018-03-15T05:10:52.637Z,3.30
2018-03-15T05:13:18.593Z,3.30
2018-03-15T05:15:44.552Z,3.30
2018-03-15T05:18:10.528Z,3.20
2018-03-15T05:20:36.484Z,3.20
2018-03-15T05:23:02.456Z,3.30
2018-03-15T05:25:29.164Z,3.20
2018-03-15T05:27:55.142Z,3.20
2018-03-15T05:30:21.120Z,3.20
2018-03-15T05:32:47.099Z,3.30
2018-03-15T05:35:13.815Z,3.40
2018-03-15T05:37:39.767Z,3.40
2018-03-15T05:40:06.536Z,3.30
2018-03-15T05:42:33.232Z,3.30
2018-03-15T05:44:59.196Z,3.30
2018-03-15T05:47:25.176Z,3.50
2018-03-15T05:49:51.164Z,3.40
2018-03-15T05:52:17.127Z,3.50
2018-03-15T05:54:43.836Z,3.90
2018-03-15T05:57:09.790Z,4.00
2018-03-15T05:59:35.756Z,4.10
2018-03-15T06:02:02.471Z,4.50
2018-03-15T06:04:28.442Z,4.40
2018-03-15T06:06:55.204Z,4.40
2018-03-15T06:09:21.186Z,4.40
2018-03-15T06:11:47.135Z,4.70
2018-03-15T06:14:13.139Z,4.90
2018-03-15T06:16:39.792Z,5.50
2018-03-15T06:19:05.752Z,5.50
2018-03-15T06:21:31.712Z,5.70
2018-03-15T06:23:58.399Z,5.80
2018-03-15T06:26:24.368Z,5.80
2018-03-15T06:28:50.388Z,5.70
2018-03-15T06:31:16.319Z,5.80
2018-03-15T06:33:42.275Z,6.40
2018-03-15T06:36:08.254Z,6.40
2018-03-15T06:38:34.211Z,6.40
2018-03-15T06:41:00.175Z,6.70
2018-03-15T06:43:26.147Z,7.00
2018-03-15T06:45:52.883Z,6.80
2018-03-15T06:48:19.410Z,6.80
2018-03-15T06:50:45.398Z,6.40
2018-03-15T06:53:11.369Z,6.00
2018-03-15T06:55:37.332Z,5.90
2018-03-15T06:58:03.295Z,6.10
2018-03-15T07:00:29.990Z,6.90
2018-03-15T07:02:56.047Z,6.90
2018-03-15T07:05:22.031Z,7.40
2018-03-15T07:07:47.987Z,8.70
2018-03-15T07:10:13.936Z,9.60
2018-03-15T07:12:39.923Z,10.10
2018-03-15T07:15:06.624Z,10.20
2018-03-15T07:17:32.603Z,10.20
2018-03-15T07:19:59.316Z,10.70
2018-03-15T07:22:25.295Z,10.70
2018-03-15T07:24:52.043Z,11.10
2018-03-15T07:27:18.746Z,11.40
2018-03-15T07:29:44.708Z,11.40
2018-03-15T07:32:10.682Z,11.60
2018-03-15T07:34:36.668Z,10.90
2018-03-15T07:37:02.632Z,10.20
2018-03-15T07:39:28.621Z,9.90
2018-03-15T07:41:54.645Z,9.80
2018-03-15T07:44:20.659Z,9.90
2018-03-15T07:46:46.612Z,9.90
2018-03-15T07:49:12.572Z,9.30
2018-03-15T07:51:38.528Z,8.50
2018-03-15T07:54:04.499Z,8.30
2018-03-15T07:56:31.194Z,8.50
2018-03-15T07:58:57.152Z,8.50
2018-03-15T08:01:23.112Z,8.10
2018-03-15T08:03:49.856Z,8.50
2018-03-15T08:06:15.895Z,8.50
2018-03-15T08:08:42.618Z,8.40
2018-03-15T08:11:08.612Z,8.40
2018-03-15T08:13:34.667Z,8.50
2018-03-15T08:16:00.621Z,8.70
2018-03-15T08:18:26.635Z,9.10
2018-03-15T08:20:52.608Z,9.10
2018-03-15T08:23:18.659Z,9.10
2018-03-15T08:25:45.362Z,9.50
2018-03-15T08:28:11.321Z,9.50
2018-03-15T08:30:37.311Z,9.60
2018-03-15T08:33:03.283Z,9.60
2018-03-15T08:35:29.298Z,9.60
2018-03-15T08:37:55.308Z,9.00
2018-03-15T08:40:22.055Z,8.80
2018-03-15T08:42:48.759Z,8.60
2018-03-15T08:45:14.716Z,8.50
2018-03-15T08:47:40.687Z,8.40
2018-03-15T08:50:07.392Z,8.60
2018-03-15T08:52:33.360Z,8.60
2018-03-15T08:55:00.068Z,8.60
2018-03-15T08:57:26.050Z,8.50
2018-03-15T08:59:52.742Z,8.60
2018-03-15T09:02:18.709Z,8.50
2018-03-15T09:04:44.678Z,8.60
2018-03-15T09:07:11.386Z,8.90
2018-03-15T09:09:37.359Z,8.90
2018-03-15T09:12:04.088Z,8.70
2018-03-15T09:14:30.780Z,8.80
2018-03-15T09:16:56.752Z,8.80
2018-03-15T09:19:22.763Z,8.50
2018-03-15T09:21:48.731Z,8.60
2018-03-15T09:24:14.689Z,8.70
2018-03-15T09:26:40.669Z,8.90
2018-03-15T09:29:06.648Z,9.00
2018-03-15T09:31:32.617Z,9.00
2018-03-15T09:33:59.316Z,8.90
2018-03-15T09:36:25.286Z,8.80
2018-03-15T09:38:51.260Z,8.60
2018-03-15T09:41:17.255Z,8.70
2018-03-15T09:43:43.220Z,9.00
2018-03-15T09:46:09.506Z,8.90
2018-03-15T09:48:36.133Z,8.90
2018-03-15T09:51:02.115Z,8.90
2018-03-15T09:53:28.073Z,9.30
2018-03-15T09:55:54.799Z,9.20
2018-03-15T09:58:20.764Z,9.10
2018-03-15T10:00:46.743Z,9.20
2018-03-15T10:03:12.720Z,9.10
2018-03-15T10:05:39.442Z,9.20
2018-03-15T10:08:05.403Z,9.20
2018-03-15T10:10:31.364Z,9.20
2018-03-15T10:12:57.338Z,9.40
2018-03-15T10:15:23.324Z,9.50
2018-03-15T10:17:50.036Z,9.70
2018-03-15T10:20:15.995Z,9.70
2018-03-15T10:22:41.969Z,9.60
2018-03-15T10:25:13.768Z,9.50
2018-03-15T10:27:33.914Z,9.60
2018-03-15T10:29:59.910Z,9.60
2018-03-15T10:32:25.824Z,9.50
2018-03-15T10:34:58.045Z,9.70
2018-03-15T10:37:24.768Z,9.80
2018-03-15T10:39:50.802Z,9.80
2018-03-15T10:42:16.782Z,9.80
2018-03-15T10:44:43.495Z,10.00
2018-03-15T10:47:09.466Z,10.00
2018-03-15T10:49:36.179Z,9.80
2018-03-15T10:52:02.144Z,9.70
2018-03-15T10:54:28.116Z,10.00
2018-03-15T10:56:54.089Z,10.00
2018-03-15T10:59:20.065Z,9.90
2018-03-15T11:01:48.642Z,10.20
2018-03-15T11:04:14.636Z,10.20
2018-03-15T11:06:57.540Z,10.30
2018-03-15T11:09:30.399Z,10.40
2018-03-15T11:11:56.376Z,10.40
2018-03-15T11:14:23.100Z,10.30
2018-03-15T11:16:49.056Z,10.30
2018-03-15T11:19:15.036Z,10.40
2018-03-15T11:21:41.060Z,10.40
2018-03-15T11:24:07.224Z,10.50
2018-03-15T11:26:33.196Z,10.60
2018-03-15T11:28:59.886Z,10.80
2018-03-15T11:31:25.862Z,10.80
2018-03-15T11:33:51.815Z,11.10
2018-03-15T11:36:18.518Z,11.10
2018-03-15T11:38:44.475Z,11.10
2018-03-15T11:41:10.441Z,11.00
2018-03-15T11:43:37.152Z,11.30
2018-03-15T11:46:03.124Z,11.30
2018-03-15T11:48:29.830Z,11.30
2018-03-15T11:50:55.800Z,11.30
2018-03-15T11:53:21.778Z,11.40
2018-03-15T11:55:47.778Z,11.40
2018-03-15T11:58:14.474Z,11.20
2018-03-15T12:00:40.478Z,11.20
2018-03-15T12:03:06.415Z,11.30
2018-03-15T12:05:33.139Z,11.40
2018-03-15T12:07:59.087Z,11.40
2018-03-15T12:10:25.049Z,11.20
2018-03-15T12:12:51.031Z,11.10
2018-03-15T12:15:17.010Z,11.30
2018-03-15T12:17:43.712Z,11.30
2018-03-15T12:20:09.695Z,11.30
2018-03-15T12:22:36.418Z,11.50
2018-03-15T12:25:02.401Z,11.50
2018-03-15T12:27:28.367Z,11.50
2018-03-15T12:29:54.338Z,11.30
2018-03-15T12:32:20.305Z,11.30
2018-03-15T12:34:46.269Z,11.30
2018-03-15T12:37:12.242Z,11.50
2018-03-15T12:39:38.216Z,11.50
2018-03-15T12:42:04.168Z,11.60
2018-03-15T12:44:30.133Z,11.30
2018-03-15T12:46:56.095Z,11.50
2018-03-15T12:49:22.807Z,11.20
2018-03-15T12:51:48.767Z,11.20
2018-03-15T12:54:14.740Z,11.30
2018-03-15T12:56:40.691Z,11.20
2018-03-15T12:59:06.679Z,11.30
2018-03-15T13:01:32.645Z,11.30
2018-03-15T13:03:58.610Z,11.30
2018-03-15T13:06:24.559Z,11.40
2018-03-15T13:08:50.527Z,11.40
2018-03-15T13:11:17.220Z,11.60
2018-03-15T13:13:43.214Z,11.50
2018-03-15T13:16:09.923Z,11.60
2018-03-15T13:18:35.891Z,11.70
2018-03-15T13:21:01.864Z,11.80
2018-03-15T13:23:27.839Z,11.90
2018-03-15T13:25:53.860Z,11.80
2018-03-15T13:28:19.856Z,11.80
2018-03-15T13:30:45.828Z,11.70
2018-03-15T13:33:11.800Z,11.90
2018-03-15T13:35:37.763Z,12.00
2018-03-15T13:38:04.464Z,12.10
2018-03-15T13:40:30.812Z,12.10
2018-03-15T13:42:56.760Z,12.10
2018-03-15T13:45:22.742Z,11.80
2018-03-15T13:47:48.696Z,11.90
2018-03-15T13:50:14.672Z,11.90
2018-03-15T13:52:40.621Z,12.00
2018-03-15T13:55:07.326Z,12.00
2018-03-15T13:57:33.296Z,12.00
2018-03-15T13:59:59.312Z,12.00
2018-03-15T14:02:25.295Z,11.90
2018-03-15T14:04:51.612Z,11.90
2018-03-15T14:07:18.319Z,11.80
2018-03-15T14:09:44.292Z,11.80
2018-03-15T14:12:10.296Z,11.80
2018-03-15T14:14:36.243Z,11.70
2018-03-15T14:17:02.231Z,11.70
2018-03-15T14:19:28.189Z,11.90
2018-03-15T14:21:54.167Z,12.00
2018-03-15T14:24:20.133Z,12.10
2018-03-15T14:26:46.102Z,12.10
2018-03-15T14:29:12.062Z,12.10
2018-03-15T14:31:38.400Z,12.10
2018-03-15T14:34:04.361Z,12.00
2018-03-15T14:36:30.320Z,12.00
2018-03-15T14:38:56.289Z,11.90
2018-03-15T14:41:22.246Z,12.00
2018-03-15T14:43:48.268Z,11.80
2018-03-15T14:46:14.235Z,11.60
2018-03-15T14:48:40.188Z,11.60
2018-03-15T14:51:06.900Z,11.60
2018-03-15T14:53:32.862Z,11.50
2018-03-15T14:55:59.567Z,11.50
2018-03-15T14:58:25.570Z,11.50
2018-03-15T15:00:51.665Z,11.50
2018-03-15T15:03:18.368Z,11.50
2018-03-15T15:05:44.340Z,11.40
2018-03-15T15:08:10.296Z,11.50
2018-03-15T15:10:36.258Z,11.40
2018-03-15T15:13:02.973Z,11.50
2018-03-15T15:15:28.958Z,11.40
2018-03-15T15:17:54.915Z,11.50
2018-03-15T15:20:20.904Z,11.50
2018-03-15T15:22:47.596Z,11.50
2018-03-15T15:25:13.568Z,11.50
2018-03-15T15:27:39.539Z,11.40
2018-03-15T15:30:06.298Z,11.40
2018-03-15T15:32:32.196Z,11.40
2018-03-15T15:34:58.151Z,11.50
2018-03-15T15:37:24.876Z,11.50
2018-03-15T15:39:50.874Z,11.50
2018-03-15T15:42:16.842Z,11.40
2018-03-15T15:44:42.821Z,11.30
2018-03-15T15:47:09.524Z,11.30
2018-03-15T15:49:35.505Z,11.30
2018-03-15T15:52:02.223Z,11.30
2018-03-15T15:54:28.929Z,11.30
2018-03-15T15:56:54.922Z,11.30
2018-03-15T15:59:20.904Z,11.30
2018-03-15T16:01:46.868Z,11.30
2018-03-15T16:04:12.859Z,11.20
2018-03-15T16:06:38.845Z,11.20
2018-03-15T16:09:04.811Z,11.20
2018-03-15T16:11:31.514Z,11.00
2018-03-15T16:13:57.512Z,11.10
2018-03-15T16:16:24.222Z,11.00
2018-03-15T16:18:50.212Z,11.00
2018-03-15T16:21:16.172Z,11.00
2018-03-15T16:23:42.159Z,10.90
2018-03-15T16:26:08.856Z,10.90
2018-03-15T16:28:34.832Z,10.90
2018-03-15T16:31:01.548Z,10.80
2018-03-15T16:33:27.512Z,10.80
2018-03-15T16:35:53.488Z,10.80
2018-03-15T16:38:19.456Z,10.80
2018-03-15T16:40:45.411Z,10.80
2018-03-15T16:43:11.419Z,10.70
2018-03-15T16:45:37.372Z,10.70
2018-03-15T16:48:03.347Z,10.70
2018-03-15T16:50:30.040Z,10.70
2018-03-15T16:52:56.018Z,10.70
2018-03-15T16:55:21.995Z,10.70
2018-03-15T16:57:47.983Z,10.70
2018-03-15T17:00:14.701Z,10.70
2018-03-15T17:02:40.668Z,10.70
2018-03-15T17:05:06.632Z,10.70
2018-03-15T17:07:33.580Z,10.60
2018-03-15T17:09:59.537Z,10.60
2018-03-15T17:12:25.522Z,10.50
2018-03-15T17:14:51.533Z,10.50
2018-03-15T17:17:17.489Z,10.50
2018-03-15T17:19:43.492Z,10.40
2018-03-15T17:22:10.198Z,10.50
2018-03-15T17:24:36.164Z,10.50
2018-03-15T17:27:02.895Z,10.50
2018-03-15T17:29:28.879Z,10.40
2018-03-15T17:31:54.859Z,10.40
2018-03-15T17:34:20.851Z,10.40
2018-03-15T17:36:46.796Z,10.40
2018-03-15T17:39:12.776Z,10.40
2018-03-15T17:41:39.503Z,10.40
2018-03-15T17:44:05.492Z,10.40
2018-03-15T17:46:31.447Z,10.40
2018-03-15T17:48:57.411Z,10.30
2018-03-15T17:51:23.416Z,10.30
2018-03-15T17:53:49.399Z,10.20
2018-03-15T17:56:15.357Z,10.10
2018-03-15T17:58:41.321Z,9.90
2018-03-15T18:01:07.276Z,9.90
2018-03-15T18:03:33.235Z,9.80
2018-03-15T18:05:59.224Z,9.80
2018-03-15T18:08:25.204Z,9.80
2018-03-15T18:10:51.181Z,9.80
2018-03-15T18:13:17.177Z,9.90
2018-03-15T18:15:43.152Z,9.80
2018-03-15T18:18:09.135Z,9.90
2018-03-15T18:20:35.096Z,9.90
2018-03-15T18:23:01.800Z,9.70
2018-03-15T18:25:27.767Z,9.60
2018-03-15T18:27:53.743Z,9.70
2018-03-15T18:30:19.705Z,9.70
2018-03-15T18:32:45.677Z,9.80
2018-03-15T18:35:11.652Z,9.70
2018-03-15T18:37:37.607Z,9.20
2018-03-15T18:40:03.568Z,8.70
2018-03-15T18:42:31.016Z,8.50
2018-03-15T18:44:56.972Z,8.50
2018-03-15T18:47:22.948Z,8.60
2018-03-15T18:49:48.953Z,8.60
2018-03-15T18:52:15.001Z,8.70
2018-03-15T18:54:41.077Z,8.80
2018-03-15T18:57:07.364Z,8.80
2018-03-15T18:59:33.616Z,8.90
2018-03-15T19:01:59.869Z,8.90
2018-03-15T19:04:26.672Z,9.10
2018-03-15T19:06:52.632Z,9.10
2018-03-15T19:09:18.639Z,9.20
2018-03-15T19:11:45.386Z,9.30
2018-03-15T19:14:11.419Z,9.20
2018-03-15T19:16:37.433Z,9.30
2018-03-15T19:19:03.497Z,9.40
2018-03-15T19:21:30.308Z,9.40
2018-03-15T19:23:56.280Z,9.40
2018-03-15T19:26:22.372Z,9.40
2018-03-15T19:28:48.339Z,9.30
2018-03-15T19:31:14.376Z,9.30
2018-03-15T19:33:40.426Z,9.40
2018-03-15T19:36:07.273Z,9.30
2018-03-15T19:38:34.796Z,9.30
2018-03-15T19:41:00.806Z,9.30
2018-03-15T19:43:27.550Z,9.40
2018-03-15T19:45:53.565Z,9.30
2018-03-15T19:48:19.546Z,9.30
2018-03-15T19:50:45.537Z,9.30
2018-03-15T19:53:11.615Z,9.30
2018-03-15T19:55:37.827Z,9.30
2018-03-15T19:58:04.175Z,9.30
2018-03-15T20:00:31.689Z,9.30
2018-03-15T20:02:59.218Z,9.30
2018-03-15T20:05:25.259Z,9.30
2018-03-15T20:07:52.017Z,9.30
2018-03-15T20:10:18.785Z,9.40
2018-03-15T20:12:44.851Z,9.40
2018-03-15T20:15:11.626Z,9.40
2018-03-15T20:17:38.612Z,9.40
2018-03-15T20:20:04.675Z,9.40
2018-03-15T20:22:36.705Z,9.30
2018-03-15T20:25:02.830Z,9.30
2018-03-15T20:27:34.912Z,9.30
2018-03-15T20:30:00.902Z,9.30
2018-03-15T20:32:33.804Z,9.20
2018-03-15T20:34:59.824Z,9.20
2018-03-15T20:37:26.577Z,9.00
2018-03-15T20:39:59.430Z,8.80
2018-03-15T20:42:25.399Z,8.80
2018-03-15T20:44:51.396Z,8.70
2018-03-15T20:47:23.584Z,8.70
2018-03-15T20:49:49.555Z,8.70
2018-03-15T20:52:15.562Z,8.80
2018-03-15T20:54:41.767Z,8.70
2018-03-15T20:57:07.819Z,8.80
2018-03-15T20:59:34.303Z,8.80
2018-03-15T21:02:00.332Z,8.80
2018-03-15T21:04:26.328Z,8.70
2018-03-15T21:06:52.300Z,8.80
2018-03-15T21:09:18.282Z,8.90
2018-03-15T21:11:44.281Z,8.90
2018-03-15T21:14:11.170Z,8.90
2018-03-15T21:16:37.996Z,8.90
2018-03-15T21:19:04.052Z,8.90
2018-03-15T21:21:30.771Z,8.90
2018-03-15T21:23:56.787Z,8.90
2018-03-15T21:26:22.808Z,8.90
2018-03-15T21:28:48.790Z,8.90
2018-03-15T21:31:14.799Z,8.90
2018-03-15T21:33:40.820Z,8.90
2018-03-15T21:36:07.113Z,8.90
2018-03-15T21:38:33.212Z,8.90
2018-03-15T21:40:59.185Z,8.90
2018-03-15T21:43:25.200Z,8.90
2018-03-15T21:45:51.177Z,8.90
2018-03-15T21:48:17.181Z,8.90
2018-03-15T21:50:43.181Z,8.90
2018-03-15T21:53:09.224Z,8.90
2018-03-15T21:55:35.298Z,8.90
2018-03-15T21:58:01.292Z,8.90
2018-03-15T22:00:27.293Z,8.80
2018-03-15T22:02:54.027Z,8.70
2018-03-15T22:05:20.019Z,8.70
2018-03-15T22:07:46.064Z,8.70
2018-03-15T22:10:12.136Z,8.80
2018-03-15T22:12:38.942Z,8.60
2018-03-15T22:15:05.028Z,8.60
2018-03-15T22:17:31.768Z,8.60
2018-03-15T22:19:57.739Z,8.60
2018-03-15T22:22:24.525Z,8.60
2018-03-15T22:24:50.507Z,8.50
2018-03-15T22:27:16.492Z,8.60
2018-03-15T22:29:42.516Z,8.60
2018-03-15T22:32:09.374Z,8.50
2018-03-15T22:34:35.372Z,8.50
2018-03-15T22:37:02.110Z,8.50
2018-03-15T22:39:28.092Z,8.50
2018-03-15T22:41:54.092Z,8.50
2018-03-15T22:44:20.083Z,8.50
2018-03-15T22:46:46.471Z,8.50
2018-03-15T22:49:12.476Z,8.50
2018-03-15T22:51:38.504Z,8.50
2018-03-15T22:54:04.531Z,8.50
2018-03-15T22:56:30.590Z,8.50
2018-03-15T22:58:56.597Z,8.50
2018-03-15T23:01:22.589Z,8.50
2018-03-15T23:03:48.556Z,8.50
2018-03-15T23:06:14.528Z,8.40
2018-03-15T23:08:40.522Z,8.50
2018-03-15T23:11:06.582Z,8.50
2018-03-15T23:13:32.624Z,8.50
2018-03-15T23:15:58.623Z,8.40
2018-03-15T23:18:25.380Z,8.40
2018-03-15T23:20:52.116Z,8.50
2018-03-15T23:23:18.104Z,8.50
2018-03-15T23:25:44.156Z,8.60
2018-03-15T23:28:10.241Z,8.70
2018-03-15T23:30:36.312Z,8.70
2018-03-15T23:33:02.516Z,8.90
2018-03-15T23:35:29.274Z,8.70
2018-03-15T23:37:56.007Z,8.60
2018-03-15T23:40:22.741Z,8.60
2018-03-15T23:42:48.740Z,8.60
2018-03-15T23:45:14.787Z,8.60
2018-03-15T23:47:40.853Z,8.70
2018-03-15T23:50:06.965Z,8.80
2018-03-15T23:52:33.204Z,8.80
2018-03-15T23:54:59.211Z,8.70
2018-03-15T23:57:26.337Z,8.60
2018-03-15T23:59:52.319Z,8.60
